sensor_id;sensor_type;location;lat;lon;timestamp;temperature;humidity
77613;DHT22;66777;52.282;5.960;2023-09-07T00:01:30;19.50;78.00
77613;DHT22;66777;52.282;5.960;2023-09-07T00:03:56;19.50;77.90
77613;DHT22;66777;52.282;5.960;2023-09-07T00:06:23;19.50;77.90
77613;DHT22;66777;52.282;5.960;2023-09-07T00:08:49;19.50;77.90
77613;DHT22;66777;52.282;5.960;2023-09-07T00:11:15;19.40;78.00
77613;DHT22;66777;52.282;5.960;2023-09-07T00:13:40;19.40;78.00
77613;DHT22;66777;52.282;5.960;2023-09-07T00:16:06;19.40;78.00
77613;DHT22;66777;52.282;5.960;2023-09-07T00:18:33;19.40;78.00
77613;DHT22;66777;52.282;5.960;2023-09-07T00:20:59;19.40;77.90
77613;DHT22;66777;52.282;5.960;2023-09-07T00:23:26;19.40;77.90
77613;DHT22;66777;52.282;5.960;2023-09-07T00:25:51;19.40;77.90
77613;DHT22;66777;52.282;5.960;2023-09-07T00:28:17;19.40;77.90
77613;DHT22;66777;52.282;5.960;2023-09-07T00:30:43;19.30;78.00
77613;DHT22;66777;52.282;5.960;2023-09-07T00:33:09;19.30;78.00
77613;DHT22;66777;52.282;5.960;2023-09-07T00:35:35;19.20;78.00
77613;DHT22;66777;52.282;5.960;2023-09-07T00:38:01;19.20;78.00
77613;DHT22;66777;52.282;5.960;2023-09-07T00:40:27;19.20;78.10
77613;DHT22;66777;52.282;5.960;2023-09-07T00:42:53;19.20;78.00
77613;DHT22;66777;52.282;5.960;2023-09-07T00:45:19;19.20;78.10
77613;DHT22;66777;52.282;5.960;2023-09-07T00:47:45;19.20;78.10
77613;DHT22;66777;52.282;5.960;2023-09-07T00:50:11;19.10;78.10
77613;DHT22;66777;52.282;5.960;2023-09-07T00:52:46;19.10;78.10
77613;DHT22;66777;52.282;5.960;2023-09-07T00:55:13;19.10;78.20
77613;DHT22;66777;52.282;5.960;2023-09-07T00:57:39;19.10;78.20
77613;DHT22;66777;52.282;5.960;2023-09-07T01:00:06;19.10;78.10
77613;DHT22;66777;52.282;5.960;2023-09-07T01:02:33;19.10;78.10
77613;DHT22;66777;52.282;5.960;2023-09-07T01:04:59;19.10;78.20
77613;DHT22;66777;52.282;5.960;2023-09-07T01:07:47;19.00;78.20
77613;DHT22;66777;52.282;5.960;2023-09-07T01:10:12;19.00;78.20
77613;DHT22;66777;52.282;5.960;2023-09-07T01:12:40;19.00;78.10
77613;DHT22;66777;52.282;5.960;2023-09-07T01:15:06;19.00;78.10
77613;DHT22;66777;52.282;5.960;2023-09-07T01:17:33;19.00;78.10
77613;DHT22;66777;52.282;5.960;2023-09-07T01:20:03;18.90;78.10
77613;DHT22;66777;52.282;5.960;2023-09-07T01:22:35;18.90;78.10
77613;DHT22;66777;52.282;5.960;2023-09-07T01:25:02;18.90;78.00
77613;DHT22;66777;52.282;5.960;2023-09-07T01:27:30;18.90;78.00
77613;DHT22;66777;52.282;5.960;2023-09-07T01:29:56;18.80;77.90
77613;DHT22;66777;52.282;5.960;2023-09-07T01:32:22;18.80;77.80
77613;DHT22;66777;52.282;5.960;2023-09-07T01:34:48;18.80;77.80
77613;DHT22;66777;52.282;5.960;2023-09-07T01:37:14;18.80;77.70
77613;DHT22;66777;52.282;5.960;2023-09-07T01:39:40;18.70;77.70
77613;DHT22;66777;52.282;5.960;2023-09-07T01:42:06;18.70;77.70
77613;DHT22;66777;52.282;5.960;2023-09-07T01:44:32;18.70;77.60
77613;DHT22;66777;52.282;5.960;2023-09-07T01:46:58;18.70;77.60
77613;DHT22;66777;52.282;5.960;2023-09-07T01:49:24;18.60;77.60
77613;DHT22;66777;52.282;5.960;2023-09-07T01:51:51;18.60;77.70
77613;DHT22;66777;52.282;5.960;2023-09-07T01:54:18;18.60;77.50
77613;DHT22;66777;52.282;5.960;2023-09-07T01:56:43;18.60;77.60
77613;DHT22;66777;52.282;5.960;2023-09-07T01:59:09;18.60;77.50
77613;DHT22;66777;52.282;5.960;2023-09-07T02:01:35;18.60;77.50
77613;DHT22;66777;52.282;5.960;2023-09-07T02:04:03;18.50;77.50
77613;DHT22;66777;52.282;5.960;2023-09-07T02:06:28;18.50;77.40
77613;DHT22;66777;52.282;5.960;2023-09-07T02:08:54;18.50;77.40
77613;DHT22;66777;52.282;5.960;2023-09-07T02:11:19;18.50;77.30
77613;DHT22;66777;52.282;5.960;2023-09-07T02:13:47;18.50;77.40
77613;DHT22;66777;52.282;5.960;2023-09-07T02:16:13;18.50;77.40
77613;DHT22;66777;52.282;5.960;2023-09-07T02:18:39;18.40;77.40
77613;DHT22;66777;52.282;5.960;2023-09-07T02:21:11;18.40;77.30
77613;DHT22;66777;52.282;5.960;2023-09-07T02:23:37;18.40;77.30
77613;DHT22;66777;52.282;5.960;2023-09-07T02:26:03;18.40;77.30
77613;DHT22;66777;52.282;5.960;2023-09-07T02:28:30;18.40;77.20
77613;DHT22;66777;52.282;5.960;2023-09-07T02:31:02;18.40;77.20
77613;DHT22;66777;52.282;5.960;2023-09-07T02:33:28;18.30;77.20
77613;DHT22;66777;52.282;5.960;2023-09-07T02:35:53;18.30;77.30
77613;DHT22;66777;52.282;5.960;2023-09-07T02:38:19;18.30;77.30
77613;DHT22;66777;52.282;5.960;2023-09-07T02:40:45;18.30;77.20
77613;DHT22;66777;52.282;5.960;2023-09-07T02:43:11;18.30;77.20
77613;DHT22;66777;52.282;5.960;2023-09-07T02:45:38;18.30;77.20
77613;DHT22;66777;52.282;5.960;2023-09-07T02:48:05;18.20;77.10
77613;DHT22;66777;52.282;5.960;2023-09-07T02:50:33;18.20;77.10
77613;DHT22;66777;52.282;5.960;2023-09-07T02:53:02;18.20;77.20
77613;DHT22;66777;52.282;5.960;2023-09-07T02:55:29;18.20;77.10
77613;DHT22;66777;52.282;5.960;2023-09-07T02:57:58;18.10;77.10
77613;DHT22;66777;52.282;5.960;2023-09-07T03:00:25;18.10;77.10
77613;DHT22;66777;52.282;5.960;2023-09-07T03:02:50;18.10;77.10
77613;DHT22;66777;52.282;5.960;2023-09-07T03:05:16;18.10;77.10
77613;DHT22;66777;52.282;5.960;2023-09-07T03:07:44;18.10;77.00
77613;DHT22;66777;52.282;5.960;2023-09-07T03:10:10;18.10;76.90
77613;DHT22;66777;52.282;5.960;2023-09-07T03:12:35;18.00;76.80
77613;DHT22;66777;52.282;5.960;2023-09-07T03:15:01;18.00;76.90
77613;DHT22;66777;52.282;5.960;2023-09-07T03:17:30;17.90;76.90
77613;DHT22;66777;52.282;5.960;2023-09-07T03:19:56;17.90;76.90
77613;DHT22;66777;52.282;5.960;2023-09-07T03:22:25;17.90;76.80
77613;DHT22;66777;52.282;5.960;2023-09-07T03:24:51;17.90;76.80
77613;DHT22;66777;52.282;5.960;2023-09-07T03:27:17;17.90;76.80
77613;DHT22;66777;52.282;5.960;2023-09-07T03:29:44;17.90;76.80
77613;DHT22;66777;52.282;5.960;2023-09-07T03:32:10;17.90;76.80
77613;DHT22;66777;52.282;5.960;2023-09-07T03:34:36;17.80;76.80
77613;DHT22;66777;52.282;5.960;2023-09-07T03:37:02;17.80;76.90
77613;DHT22;66777;52.282;5.960;2023-09-07T03:39:31;17.80;76.80
77613;DHT22;66777;52.282;5.960;2023-09-07T03:41:57;17.80;76.80
77613;DHT22;66777;52.282;5.960;2023-09-07T03:44:23;17.80;76.90
77613;DHT22;66777;52.282;5.960;2023-09-07T03:46:48;17.80;76.90
77613;DHT22;66777;52.282;5.960;2023-09-07T03:49:14;17.80;76.90
77613;DHT22;66777;52.282;5.960;2023-09-07T03:51:40;17.80;76.90
77613;DHT22;66777;52.282;5.960;2023-09-07T03:54:05;17.80;76.80
77613;DHT22;66777;52.282;5.960;2023-09-07T03:56:31;17.80;76.80
77613;DHT22;66777;52.282;5.960;2023-09-07T03:58:56;17.70;76.80
77613;DHT22;66777;52.282;5.960;2023-09-07T04:01:22;17.70;76.90
77613;DHT22;66777;52.282;5.960;2023-09-07T04:03:47;17.60;76.90
77613;DHT22;66777;52.282;5.960;2023-09-07T04:06:14;17.60;76.90
77613;DHT22;66777;52.282;5.960;2023-09-07T04:08:40;17.60;76.80
77613;DHT22;66777;52.282;5.960;2023-09-07T04:11:06;17.50;76.80
77613;DHT22;66777;52.282;5.960;2023-09-07T04:13:35;17.50;76.80
77613;DHT22;66777;52.282;5.960;2023-09-07T04:16:01;17.50;76.80
77613;DHT22;66777;52.282;5.960;2023-09-07T04:18:27;17.50;76.70
77613;DHT22;66777;52.282;5.960;2023-09-07T04:20:53;17.50;76.70
77613;DHT22;66777;52.282;5.960;2023-09-07T04:23:19;17.50;76.60
77613;DHT22;66777;52.282;5.960;2023-09-07T04:25:44;17.50;76.60
77613;DHT22;66777;52.282;5.960;2023-09-07T04:28:10;17.50;76.60
77613;DHT22;66777;52.282;5.960;2023-09-07T04:30:39;17.50;76.60
77613;DHT22;66777;52.282;5.960;2023-09-07T04:33:05;17.40;76.60
77613;DHT22;66777;52.282;5.960;2023-09-07T04:35:32;17.40;76.60
77613;DHT22;66777;52.282;5.960;2023-09-07T04:37:58;17.40;76.60
77613;DHT22;66777;52.282;5.960;2023-09-07T04:40:24;17.40;76.70
77613;DHT22;66777;52.282;5.960;2023-09-07T04:42:50;17.40;76.70
77613;DHT22;66777;52.282;5.960;2023-09-07T04:45:16;17.40;76.70
77613;DHT22;66777;52.282;5.960;2023-09-07T04:47:43;17.40;76.80
77613;DHT22;66777;52.282;5.960;2023-09-07T04:50:09;17.40;76.70
77613;DHT22;66777;52.282;5.960;2023-09-07T04:52:35;17.40;76.70
77613;DHT22;66777;52.282;5.960;2023-09-07T04:55:01;17.40;76.70
77613;DHT22;66777;52.282;5.960;2023-09-07T04:57:30;17.40;76.70
77613;DHT22;66777;52.282;5.960;2023-09-07T04:59:56;17.30;76.70
77613;DHT22;66777;52.282;5.960;2023-09-07T05:02:22;17.30;76.50
77613;DHT22;66777;52.282;5.960;2023-09-07T05:04:47;17.20;76.40
77613;DHT22;66777;52.282;5.960;2023-09-07T05:07:13;17.10;76.50
77613;DHT22;66777;52.282;5.960;2023-09-07T05:09:39;17.10;76.50
77613;DHT22;66777;52.282;5.960;2023-09-07T05:12:04;17.10;76.40
77613;DHT22;66777;52.282;5.960;2023-09-07T05:14:30;17.20;76.30
77613;DHT22;66777;52.282;5.960;2023-09-07T05:16:56;17.20;76.30
77613;DHT22;66777;52.282;5.960;2023-09-07T05:19:22;17.20;76.20
77613;DHT22;66777;52.282;5.960;2023-09-07T05:21:48;17.20;76.20
77613;DHT22;66777;52.282;5.960;2023-09-07T05:24:14;17.20;76.10
77613;DHT22;66777;52.282;5.960;2023-09-07T05:26:41;17.10;76.10
77613;DHT22;66777;52.282;5.960;2023-09-07T05:29:07;17.20;76.10
77613;DHT22;66777;52.282;5.960;2023-09-07T05:31:33;17.10;76.00
77613;DHT22;66777;52.282;5.960;2023-09-07T05:33:58;17.10;76.00
77613;DHT22;66777;52.282;5.960;2023-09-07T05:36:24;17.20;75.90
77613;DHT22;66777;52.282;5.960;2023-09-07T05:38:50;17.20;75.90
77613;DHT22;66777;52.282;5.960;2023-09-07T05:41:15;17.20;75.90
77613;DHT22;66777;52.282;5.960;2023-09-07T05:43:41;17.20;75.90
77613;DHT22;66777;52.282;5.960;2023-09-07T05:46:06;17.20;75.90
77613;DHT22;66777;52.282;5.960;2023-09-07T05:48:32;17.20;75.90
77613;DHT22;66777;52.282;5.960;2023-09-07T05:50:58;17.20;75.90
77613;DHT22;66777;52.282;5.960;2023-09-07T05:53:24;17.20;75.90
77613;DHT22;66777;52.282;5.960;2023-09-07T05:55:51;17.20;75.90
77613;DHT22;66777;52.282;5.960;2023-09-07T05:58:17;17.20;75.90
77613;DHT22;66777;52.282;5.960;2023-09-07T06:00:43;17.20;75.80
77613;DHT22;66777;52.282;5.960;2023-09-07T06:03:09;17.20;75.90
77613;DHT22;66777;52.282;5.960;2023-09-07T06:05:35;17.20;76.00
77613;DHT22;66777;52.282;5.960;2023-09-07T06:08:02;17.20;76.00
77613;DHT22;66777;52.282;5.960;2023-09-07T06:10:28;17.20;76.00
77613;DHT22;66777;52.282;5.960;2023-09-07T06:12:55;17.20;76.10
77613;DHT22;66777;52.282;5.960;2023-09-07T06:15:20;17.20;76.10
77613;DHT22;66777;52.282;5.960;2023-09-07T06:17:46;17.20;76.20
77613;DHT22;66777;52.282;5.960;2023-09-07T06:20:12;17.30;76.20
77613;DHT22;66777;52.282;5.960;2023-09-07T06:22:38;17.30;76.20
77613;DHT22;66777;52.282;5.960;2023-09-07T06:25:03;17.30;76.30
77613;DHT22;66777;52.282;5.960;2023-09-07T06:27:29;17.40;76.40
77613;DHT22;66777;52.282;5.960;2023-09-07T06:29:54;17.40;76.40
77613;DHT22;66777;52.282;5.960;2023-09-07T06:32:20;17.40;76.50
77613;DHT22;66777;52.282;5.960;2023-09-07T06:34:46;17.40;76.50
77613;DHT22;66777;52.282;5.960;2023-09-07T06:37:12;17.50;76.60
77613;DHT22;66777;52.282;5.960;2023-09-07T06:39:38;17.50;76.60
77613;DHT22;66777;52.282;5.960;2023-09-07T06:42:04;17.50;76.70
77613;DHT22;66777;52.282;5.960;2023-09-07T06:44:30;17.50;76.80
77613;DHT22;66777;52.282;5.960;2023-09-07T06:46:56;17.50;77.00
77613;DHT22;66777;52.282;5.960;2023-09-07T06:49:21;17.60;77.00
77613;DHT22;66777;52.282;5.960;2023-09-07T06:51:47;17.60;77.20
77613;DHT22;66777;52.282;5.960;2023-09-07T06:54:13;17.60;77.30
77613;DHT22;66777;52.282;5.960;2023-09-07T06:56:38;17.70;77.50
77613;DHT22;66777;52.282;5.960;2023-09-07T06:59:05;17.80;77.60
77613;DHT22;66777;52.282;5.960;2023-09-07T07:01:30;17.80;77.70
77613;DHT22;66777;52.282;5.960;2023-09-07T07:03:56;17.80;77.80
77613;DHT22;66777;52.282;5.960;2023-09-07T07:06:23;17.80;78.00
77613;DHT22;66777;52.282;5.960;2023-09-07T07:08:48;17.80;78.10
77613;DHT22;66777;52.282;5.960;2023-09-07T07:11:14;17.90;78.20
77613;DHT22;66777;52.282;5.960;2023-09-07T07:13:39;18.00;78.30
77613;DHT22;66777;52.282;5.960;2023-09-07T07:16:05;18.00;78.50
77613;DHT22;66777;52.282;5.960;2023-09-07T07:18:30;18.00;78.90
77613;DHT22;66777;52.282;5.960;2023-09-07T07:20:56;18.10;78.90
77613;DHT22;66777;52.282;5.960;2023-09-07T07:23:21;18.20;78.70
77613;DHT22;66777;52.282;5.960;2023-09-07T07:25:47;18.30;78.60
77613;DHT22;66777;52.282;5.960;2023-09-07T07:28:13;18.40;78.50
77613;DHT22;66777;52.282;5.960;2023-09-07T07:30:39;18.60;78.30
77613;DHT22;66777;52.282;5.960;2023-09-07T07:33:08;18.70;78.20
77613;DHT22;66777;52.282;5.960;2023-09-07T07:35:35;18.70;78.20
77613;DHT22;66777;52.282;5.960;2023-09-07T07:38:01;18.80;78.10
77613;DHT22;66777;52.282;5.960;2023-09-07T07:40:27;18.90;78.10
77613;DHT22;66777;52.282;5.960;2023-09-07T07:42:53;18.90;78.20
77613;DHT22;66777;52.282;5.960;2023-09-07T07:45:19;19.00;78.20
77613;DHT22;66777;52.282;5.960;2023-09-07T07:47:51;19.10;78.10
77613;DHT22;66777;52.282;5.960;2023-09-07T07:50:17;19.10;78.10
77613;DHT22;66777;52.282;5.960;2023-09-07T07:52:44;19.20;78.00
77613;DHT22;66777;52.282;5.960;2023-09-07T07:55:10;19.30;77.90
77613;DHT22;66777;52.282;5.960;2023-09-07T07:57:36;19.30;78.00
77613;DHT22;66777;52.282;5.960;2023-09-07T08:00:03;19.30;78.00
77613;DHT22;66777;52.282;5.960;2023-09-07T08:02:29;19.40;78.00
77613;DHT22;66777;52.282;5.960;2023-09-07T08:04:55;19.40;78.10
77613;DHT22;66777;52.282;5.960;2023-09-07T08:07:20;19.50;78.10
77613;DHT22;66777;52.282;5.960;2023-09-07T08:09:46;19.50;78.20
77613;DHT22;66777;52.282;5.960;2023-09-07T08:12:12;19.50;78.10
77613;DHT22;66777;52.282;5.960;2023-09-07T08:14:38;19.50;78.10
77613;DHT22;66777;52.282;5.960;2023-09-07T08:17:03;19.50;78.10
77613;DHT22;66777;52.282;5.960;2023-09-07T08:19:29;19.60;78.00
77613;DHT22;66777;52.282;5.960;2023-09-07T08:21:55;19.60;78.00
77613;DHT22;66777;52.282;5.960;2023-09-07T08:24:20;19.70;78.10
77613;DHT22;66777;52.282;5.960;2023-09-07T08:26:46;19.70;78.10
77613;DHT22;66777;52.282;5.960;2023-09-07T08:29:16;19.70;78.10
77613;DHT22;66777;52.282;5.960;2023-09-07T08:31:42;19.70;78.20
77613;DHT22;66777;52.282;5.960;2023-09-07T08:34:11;19.70;78.30
77613;DHT22;66777;52.282;5.960;2023-09-07T08:36:40;19.60;78.40
77613;DHT22;66777;52.282;5.960;2023-09-07T08:39:06;19.60;78.60
77613;DHT22;66777;52.282;5.960;2023-09-07T08:41:37;19.60;78.60
77613;DHT22;66777;52.282;5.960;2023-09-07T08:44:18;19.60;78.70
77613;DHT22;66777;52.282;5.960;2023-09-07T08:46:49;19.70;78.70
77613;DHT22;66777;52.282;5.960;2023-09-07T08:49:16;19.60;78.70
77613;DHT22;66777;52.282;5.960;2023-09-07T08:51:45;19.60;78.90
77613;DHT22;66777;52.282;5.960;2023-09-07T08:54:12;19.70;78.90
77613;DHT22;66777;52.282;5.960;2023-09-07T08:56:37;19.70;78.90
77613;DHT22;66777;52.282;5.960;2023-09-07T08:59:03;19.70;79.00
77613;DHT22;66777;52.282;5.960;2023-09-07T09:01:30;19.70;78.90
77613;DHT22;66777;52.282;5.960;2023-09-07T09:03:57;19.70;78.90
77613;DHT22;66777;52.282;5.960;2023-09-07T09:06:23;19.80;78.90
77613;DHT22;66777;52.282;5.960;2023-09-07T09:08:50;19.90;78.80
77613;DHT22;66777;52.282;5.960;2023-09-07T09:11:18;19.90;78.70
77613;DHT22;66777;52.282;5.960;2023-09-07T09:13:44;19.90;78.90
77613;DHT22;66777;52.282;5.960;2023-09-07T09:16:11;20.00;78.90
77613;DHT22;66777;52.282;5.960;2023-09-07T09:18:38;20.00;78.90
77613;DHT22;66777;52.282;5.960;2023-09-07T09:21:04;20.00;78.90
77613;DHT22;66777;52.282;5.960;2023-09-07T09:23:32;20.00;78.90
77613;DHT22;66777;52.282;5.960;2023-09-07T09:26:00;20.10;78.70
77613;DHT22;66777;52.282;5.960;2023-09-07T09:28:26;20.20;78.60
77613;DHT22;66777;52.282;5.960;2023-09-07T09:30:53;20.30;78.50
77613;DHT22;66777;52.282;5.960;2023-09-07T09:33:20;20.30;78.40
77613;DHT22;66777;52.282;5.960;2023-09-07T09:35:47;20.50;78.30
77613;DHT22;66777;52.282;5.960;2023-09-07T09:38:13;20.50;78.10
77613;DHT22;66777;52.282;5.960;2023-09-07T09:40:38;20.50;78.10
77613;DHT22;66777;52.282;5.960;2023-09-07T09:43:05;20.60;77.90
77613;DHT22;66777;52.282;5.960;2023-09-07T09:45:32;20.60;77.90
77613;DHT22;66777;52.282;5.960;2023-09-07T09:47:58;20.70;77.90
77613;DHT22;66777;52.282;5.960;2023-09-07T09:50:27;20.70;77.80
77613;DHT22;66777;52.282;5.960;2023-09-07T09:52:53;20.80;77.80
77613;DHT22;66777;52.282;5.960;2023-09-07T09:55:19;20.90;77.70
77613;DHT22;66777;52.282;5.960;2023-09-07T09:57:45;20.90;77.60
77613;DHT22;66777;52.282;5.960;2023-09-07T10:00:11;20.90;77.70
77613;DHT22;66777;52.282;5.960;2023-09-07T10:03:00;21.00;77.50
77613;DHT22;66777;52.282;5.960;2023-09-07T10:05:29;21.00;77.30
77613;DHT22;66777;52.282;5.960;2023-09-07T10:08:01;21.10;77.20
77613;DHT22;66777;52.282;5.960;2023-09-07T10:10:35;21.10;77.50
77613;DHT22;66777;52.282;5.960;2023-09-07T10:13:02;21.10;77.50
77613;DHT22;66777;52.282;5.960;2023-09-07T10:15:28;21.10;77.30
77613;DHT22;66777;52.282;5.960;2023-09-07T10:18:12;21.20;77.20
77613;DHT22;66777;52.282;5.960;2023-09-07T10:20:49;21.30;77.20
77613;DHT22;66777;52.282;5.960;2023-09-07T10:23:15;21.30;77.00
77613;DHT22;66777;52.282;5.960;2023-09-07T10:25:41;21.40;76.90
77613;DHT22;66777;52.282;5.960;2023-09-07T10:28:24;21.50;76.60
77613;DHT22;66777;52.282;5.960;2023-09-07T10:31:00;21.60;76.20
77613;DHT22;66777;52.282;5.960;2023-09-07T10:33:27;21.70;76.10
77613;DHT22;66777;52.282;5.960;2023-09-07T10:35:53;21.70;76.00
77613;DHT22;66777;52.282;5.960;2023-09-07T10:38:18;21.70;76.00
77613;DHT22;66777;52.282;5.960;2023-09-07T10:40:44;21.70;75.90
77613;DHT22;66777;52.282;5.960;2023-09-07T10:43:11;21.70;75.80
77613;DHT22;66777;52.282;5.960;2023-09-07T10:45:36;21.70;75.90
77613;DHT22;66777;52.282;5.960;2023-09-07T10:48:02;21.80;75.80
77613;DHT22;66777;52.282;5.960;2023-09-07T10:50:45;21.90;75.60
77613;DHT22;66777;52.282;5.960;2023-09-07T10:53:12;22.00;75.30
77613;DHT22;66777;52.282;5.960;2023-09-07T10:55:39;22.00;75.00
77613;DHT22;66777;52.282;5.960;2023-09-07T10:58:05;22.00;75.00
77613;DHT22;66777;52.282;5.960;2023-09-07T11:00:31;22.10;74.80
77613;DHT22;66777;52.282;5.960;2023-09-07T11:02:57;22.10;74.60
77613;DHT22;66777;52.282;5.960;2023-09-07T11:05:22;22.20;74.50
77613;DHT22;66777;52.282;5.960;2023-09-07T11:07:48;22.30;74.50
77613;DHT22;66777;52.282;5.960;2023-09-07T11:10:13;22.30;74.50
77613;DHT22;66777;52.282;5.960;2023-09-07T11:12:40;22.40;74.50
77613;DHT22;66777;52.282;5.960;2023-09-07T11:15:09;22.50;74.30
77613;DHT22;66777;52.282;5.960;2023-09-07T11:17:37;22.60;74.30
77613;DHT22;66777;52.282;5.960;2023-09-07T11:20:05;22.70;74.10
77613;DHT22;66777;52.282;5.960;2023-09-07T11:22:32;22.80;73.90
77613;DHT22;66777;52.282;5.960;2023-09-07T11:24:59;22.90;73.60
77613;DHT22;66777;52.282;5.960;2023-09-07T11:27:29;23.00;73.30
77613;DHT22;66777;52.282;5.960;2023-09-07T11:29:56;23.10;73.00
77613;DHT22;66777;52.282;5.960;2023-09-07T11:32:22;23.30;72.60
77613;DHT22;66777;52.282;5.960;2023-09-07T11:34:50;23.40;72.20
77613;DHT22;66777;52.282;5.960;2023-09-07T11:37:17;23.50;71.60
77613;DHT22;66777;52.282;5.960;2023-09-07T11:39:44;23.60;71.30
77613;DHT22;66777;52.282;5.960;2023-09-07T11:42:09;23.60;71.30
77613;DHT22;66777;52.282;5.960;2023-09-07T11:44:35;23.70;71.20
77613;DHT22;66777;52.282;5.960;2023-09-07T11:47:01;23.80;71.10
77613;DHT22;66777;52.282;5.960;2023-09-07T11:49:26;23.90;70.80
77613;DHT22;66777;52.282;5.960;2023-09-07T11:51:52;24.00;70.50
77613;DHT22;66777;52.282;5.960;2023-09-07T11:54:17;24.00;70.50
77613;DHT22;66777;52.282;5.960;2023-09-07T11:56:43;24.00;70.70
77613;DHT22;66777;52.282;5.960;2023-09-07T11:59:11;24.00;70.80
77613;DHT22;66777;52.282;5.960;2023-09-07T12:01:36;24.10;70.70
77613;DHT22;66777;52.282;5.960;2023-09-07T12:04:05;24.20;70.70
77613;DHT22;66777;52.282;5.960;2023-09-07T12:06:31;24.30;70.10
77613;DHT22;66777;52.282;5.960;2023-09-07T12:09:01;24.40;69.50
77613;DHT22;66777;52.282;5.960;2023-09-07T12:11:26;24.50;69.20
77613;DHT22;66777;52.282;5.960;2023-09-07T12:13:52;24.50;69.10
77613;DHT22;66777;52.282;5.960;2023-09-07T12:16:18;24.50;69.10
77613;DHT22;66777;52.282;5.960;2023-09-07T12:18:43;24.50;69.00
77613;DHT22;66777;52.282;5.960;2023-09-07T12:21:09;24.60;68.80
77613;DHT22;66777;52.282;5.960;2023-09-07T12:23:34;24.70;68.30
77613;DHT22;66777;52.282;5.960;2023-09-07T12:26:01;24.80;68.00
77613;DHT22;66777;52.282;5.960;2023-09-07T12:28:27;24.90;68.00
77613;DHT22;66777;52.282;5.960;2023-09-07T12:30:53;24.80;67.90
77613;DHT22;66777;52.282;5.960;2023-09-07T12:33:18;25.00;67.20
77613;DHT22;66777;52.282;5.960;2023-09-07T12:35:44;25.10;66.80
77613;DHT22;66777;52.282;5.960;2023-09-07T12:38:09;25.10;66.90
77613;DHT22;66777;52.282;5.960;2023-09-07T12:40:37;25.20;66.80
77613;DHT22;66777;52.282;5.960;2023-09-07T12:43:03;25.30;66.20
77613;DHT22;66777;52.282;5.960;2023-09-07T12:45:29;25.40;65.90
77613;DHT22;66777;52.282;5.960;2023-09-07T12:47:54;25.40;65.90
77613;DHT22;66777;52.282;5.960;2023-09-07T12:50:20;25.30;65.80
77613;DHT22;66777;52.282;5.960;2023-09-07T12:52:46;25.30;65.90
77613;DHT22;66777;52.282;5.960;2023-09-07T12:55:11;25.30;65.90
77613;DHT22;66777;52.282;5.960;2023-09-07T12:57:37;25.30;65.90
77613;DHT22;66777;52.282;5.960;2023-09-07T13:00:04;25.40;65.70
77613;DHT22;66777;52.282;5.960;2023-09-07T13:02:29;25.40;65.30
77613;DHT22;66777;52.282;5.960;2023-09-07T13:04:55;25.50;65.00
77613;DHT22;66777;52.282;5.960;2023-09-07T13:07:21;25.50;65.10
77613;DHT22;66777;52.282;5.960;2023-09-07T13:09:47;25.50;65.00
77613;DHT22;66777;52.282;5.960;2023-09-07T13:12:12;25.50;65.00
77613;DHT22;66777;52.282;5.960;2023-09-07T13:14:38;25.60;64.60
77613;DHT22;66777;52.282;5.960;2023-09-07T13:17:04;25.60;64.60
77613;DHT22;66777;52.282;5.960;2023-09-07T13:19:29;25.60;64.40
77613;DHT22;66777;52.282;5.960;2023-09-07T13:21:55;25.60;64.40
77613;DHT22;66777;52.282;5.960;2023-09-07T13:24:21;25.80;64.00
77613;DHT22;66777;52.282;5.960;2023-09-07T13:26:48;25.80;63.70
77613;DHT22;66777;52.282;5.960;2023-09-07T13:29:14;26.00;63.40
77613;DHT22;66777;52.282;5.960;2023-09-07T13:31:39;26.00;63.20
77613;DHT22;66777;52.282;5.960;2023-09-07T13:34:05;26.00;63.40
77613;DHT22;66777;52.282;5.960;2023-09-07T13:36:31;26.00;63.50
77613;DHT22;66777;52.282;5.960;2023-09-07T13:38:57;26.00;63.50
77613;DHT22;66777;52.282;5.960;2023-09-07T13:41:25;26.00;63.50
77613;DHT22;66777;52.282;5.960;2023-09-07T13:43:51;26.10;63.20
77613;DHT22;66777;52.282;5.960;2023-09-07T13:46:17;26.10;63.30
77613;DHT22;66777;52.282;5.960;2023-09-07T13:48:42;26.10;63.30
77613;DHT22;66777;52.282;5.960;2023-09-07T13:51:08;26.00;63.50
77613;DHT22;66777;52.282;5.960;2023-09-07T13:53:34;26.00;63.60
77613;DHT22;66777;52.282;5.960;2023-09-07T13:55:59;26.10;63.40
77613;DHT22;66777;52.282;5.960;2023-09-07T13:58:25;26.10;63.20
77613;DHT22;66777;52.282;5.960;2023-09-07T14:00:50;26.20;62.90
77613;DHT22;66777;52.282;5.960;2023-09-07T14:03:16;26.30;62.80
77613;DHT22;66777;52.282;5.960;2023-09-07T14:05:42;26.30;62.60
77613;DHT22;66777;52.282;5.960;2023-09-07T14:08:07;26.30;62.70
77613;DHT22;66777;52.282;5.960;2023-09-07T14:10:33;26.20;62.90
77613;DHT22;66777;52.282;5.960;2023-09-07T14:12:58;26.20;63.00
77613;DHT22;66777;52.282;5.960;2023-09-07T14:15:24;26.20;63.00
77613;DHT22;66777;52.282;5.960;2023-09-07T14:17:50;26.20;62.90
77613;DHT22;66777;52.282;5.960;2023-09-07T14:20:15;26.20;63.00
77613;DHT22;66777;52.282;5.960;2023-09-07T14:22:41;26.10;63.30
77613;DHT22;66777;52.282;5.960;2023-09-07T14:25:07;26.10;63.40
77613;DHT22;66777;52.282;5.960;2023-09-07T14:27:33;26.10;63.30
77613;DHT22;66777;52.282;5.960;2023-09-07T14:29:59;26.20;63.20
77613;DHT22;66777;52.282;5.960;2023-09-07T14:32:24;26.10;63.20
77613;DHT22;66777;52.282;5.960;2023-09-07T14:34:50;26.10;63.20
77613;DHT22;66777;52.282;5.960;2023-09-07T14:37:15;26.20;63.10
77613;DHT22;66777;52.282;5.960;2023-09-07T14:39:41;26.20;63.00
77613;DHT22;66777;52.282;5.960;2023-09-07T14:42:12;26.10;63.10
77613;DHT22;66777;52.282;5.960;2023-09-07T14:44:42;26.20;62.70
77613;DHT22;66777;52.282;5.960;2023-09-07T14:47:07;26.30;62.50
77613;DHT22;66777;52.282;5.960;2023-09-07T14:49:33;26.30;62.40
77613;DHT22;66777;52.282;5.960;2023-09-07T14:51:59;26.20;62.40
77613;DHT22;66777;52.282;5.960;2023-09-07T14:54:24;26.20;62.40
77613;DHT22;66777;52.282;5.960;2023-09-07T14:56:50;26.20;62.60
77613;DHT22;66777;52.282;5.960;2023-09-07T14:59:16;26.10;62.90
77613;DHT22;66777;52.282;5.960;2023-09-07T15:01:41;26.10;63.10
77613;DHT22;66777;52.282;5.960;2023-09-07T15:04:08;26.10;63.00
77613;DHT22;66777;52.282;5.960;2023-09-07T15:06:33;26.10;62.90
77613;DHT22;66777;52.282;5.960;2023-09-07T15:08:59;26.10;63.10
77613;DHT22;66777;52.282;5.960;2023-09-07T15:11:25;26.00;63.20
77613;DHT22;66777;52.282;5.960;2023-09-07T15:13:51;26.00;63.30
77613;DHT22;66777;52.282;5.960;2023-09-07T15:16:18;25.80;63.60
77613;DHT22;66777;52.282;5.960;2023-09-07T15:18:44;25.70;64.00
77613;DHT22;66777;52.282;5.960;2023-09-07T15:21:10;25.60;64.40
77613;DHT22;66777;52.282;5.960;2023-09-07T15:23:36;25.60;64.70
77613;DHT22;66777;52.282;5.960;2023-09-07T15:26:02;25.50;64.60